Ocean Dalian — VRJG8 — position and weather

sailwx.info

Track history (hours):
 
Tides and Currents Weather Stations Pressure Air Temp Water Temp Dewpoint Dewpoint Depression Visibility Wind Speed Wind Dir Waves Ship Positions

Ocean Dalian

Last reported at 2018-Feb-12 20:16 UTC. Time now 2018-Feb-23 03:18 UTC.
Position N 14°52' E 119°29'.
Warning: this ship's position is 10 days out of date.

Length 225 m; draft 7 m.

Type: Cargo ship. MMSI: 477424800.

Date/timePositionNaut miles runAvg speedWind from/ knotsBaromVisibWave heightAir tempDewpointWater temp
2018-Feb-12 20:16N 14°52' E 119°29'312.8
2018-Feb-12 20:00N 14°56' E 119°28'713.1
2018-Feb-12 19:27N 15°03' E 119°25'613.0
2018-Feb-12 19:00N 15°08' E 119°23'612.7
2018-Feb-12 18:30N 15°14' E 119°21'612.4
2018-Feb-12 18:00N 15°20' E 119°19'612.6
2018-Feb-12 17:30N 15°26' E 119°17'612.6
2018-Feb-12 17:00N 15°32' E 119°15'612.6
2018-Feb-12 16:30N 15°38' E 119°12'612.6
2018-Feb-12 16:00N 15°44' E 119°10'612.6
2018-Feb-12 15:30N 15°50' E 119°08'612.8
2018-Feb-12 15:00N 15°56' E 119°06'612.8
2018-Feb-12 14:30N 16°02' E 119°04'612.9
2018-Feb-12 14:00N 16°08' E 119°01'612.6
2018-Feb-12 13:30N 16°14' E 118°59'612.1
2018-Feb-12 13:01N 16°19' E 118°57'611.9
2018-Feb-12 12:30N 16°25' E 118°55'612.4
2018-Feb-12 12:00N 16°31' E 118°53'612.1
2018-Feb-12 11:31N 16°36' E 118°51'611.9
2018-Feb-12 11:00N 16°42' E 118°50'611.8
2018-Feb-12 10:30N 16°48' E 118°48'611.2
2018-Feb-12 10:00N 16°52' E 118°45'510.7
2018-Feb-12 09:30N 16°57' E 118°41'510.4
2018-Feb-12 09:01N 16°59' E 118°37'510.6
2018-Feb-12 08:31N 17°02' E 118°32'510.4
2018-Feb-12 08:01N 17°05' E 118°27'510.5
2018-Feb-12 07:30N 17°07' E 118°22'510.1
2018-Feb-12 07:01N 17°10' E 118°18'510.4
2018-Feb-12 06:30N 17°13' E 118°13'510.1
2018-Feb-12 06:00N 17°15' E 118°09'610.1
2018-Feb-12 05:25N 17°19' E 118°04'4 9.8
2018-Feb-12 04:59N 17°21' E 117°60'510.7
2018-Feb-12 04:30N 17°24' E 117°56'1211.1
2018-Feb-12 03:27N 17°34' E 117°49'3111.3
2018-Feb-12 00:42N 18°02' E 117°35'1211.9
2018-Feb-11 23:43N 18°13' E 117°30'412.1
2018-Feb-11 23:24N 18°16' E 117°29'298 8.0
2018-Feb-10 10:21N 21°52' E 113°51'612.9
2018-Feb-10 09:53N 21°50' E 113°44'  
Track history (hours):
 
Tides and Currents Weather Stations Pressure Air Temp Water Temp Dewpoint Dewpoint Depression Visibility Wind Speed Wind Dir Waves Ship Positions

Ocean Dalian

Last reported at 2018-Feb-12 20:16 UTC. Time now 2018-Feb-23 03:18 UTC.
Position N 14°52' E 119°29'.
Warning: this ship's position is 10 days out of date.

Length 225 m; draft 7 m.

Type: Cargo ship. MMSI: 477424800.

Date/timePositionNaut miles runAvg speedWind from/ knotsBaromVisibWave heightAir tempDewpointWater temp
2018-Feb-12 20:16N 14°52' E 119°29'312.8
2018-Feb-12 20:00N 14°56' E 119°28'713.1
2018-Feb-12 19:27N 15°03' E 119°25'613.0
2018-Feb-12 19:00N 15°08' E 119°23'612.7
2018-Feb-12 18:30N 15°14' E 119°21'612.4
2018-Feb-12 18:00N 15°20' E 119°19'612.6
2018-Feb-12 17:30N 15°26' E 119°17'612.6
2018-Feb-12 17:00N 15°32' E 119°15'612.6
2018-Feb-12 16:30N 15°38' E 119°12'612.6
2018-Feb-12 16:00N 15°44' E 119°10'612.6
2018-Feb-12 15:30N 15°50' E 119°08'612.8
2018-Feb-12 15:00N 15°56' E 119°06'612.8
2018-Feb-12 14:30N 16°02' E 119°04'612.9
2018-Feb-12 14:00N 16°08' E 119°01'612.6
2018-Feb-12 13:30N 16°14' E 118°59'612.1
2018-Feb-12 13:01N 16°19' E 118°57'611.9
2018-Feb-12 12:30N 16°25' E 118°55'612.4
2018-Feb-12 12:00N 16°31' E 118°53'612.1
2018-Feb-12 11:31N 16°36' E 118°51'611.9
2018-Feb-12 11:00N 16°42' E 118°50'611.8
2018-Feb-12 10:30N 16°48' E 118°48'611.2
2018-Feb-12 10:00N 16°52' E 118°45'510.7
2018-Feb-12 09:30N 16°57' E 118°41'510.4
2018-Feb-12 09:01N 16°59' E 118°37'510.6
2018-Feb-12 08:31N 17°02' E 118°32'510.4
2018-Feb-12 08:01N 17°05' E 118°27'510.5
2018-Feb-12 07:30N 17°07' E 118°22'510.1
2018-Feb-12 07:01N 17°10' E 118°18'510.4
2018-Feb-12 06:30N 17°13' E 118°13'510.1
2018-Feb-12 06:00N 17°15' E 118°09'610.1
2018-Feb-12 05:25N 17°19' E 118°04'4 9.8
2018-Feb-12 04:59N 17°21' E 117°60'510.7
2018-Feb-12 04:30N 17°24' E 117°56'1211.1
2018-Feb-12 03:27N 17°34' E 117°49'3111.3
2018-Feb-12 00:42N 18°02' E 117°35'1211.9
2018-Feb-11 23:43N 18°13' E 117°30'412.1
2018-Feb-11 23:24N 18°16' E 117°29'298 8.0
2018-Feb-10 10:21N 21°52' E 113°51'612.9
2018-Feb-10 09:53N 21°50' E 113°44'  

Dump ship's entire track history